Other Surface Observations
Issued by NWS Missoula, MT

Home | Current Version | Previous Version | Text Only | Print | Product List | Glossary On
Versions: 1 2 3 4 5 6 7 8 9 10 11 12 13 14 15 16 17 18 19 20 21 22 23 24 25 26 27 28 29 30 31 32 33 34 35 36 37 38 39 40 41 42 43 44 45 46 47 48 49 50
000
SXUS55 KMSO 012343
OSOMSO
MONTANA AWOS SUMMARY
NATIONAL WEATHER SERVICE MISSOULA MT
543 PM MDT WED JUL 1 2015

Montana AWOS Reports

ROUNDUP     |KRPX 012335Z AUTO 00000KT 40SM 27/12 A2994 RMK AO1 T02720122
LAUREL      |K6S8 012335Z AUTO 00000KT 40SM 34/09 A2996 RMK AO1 T03390094
TWIN BRIDGES|K7S1 012335Z AUTO 20007KT 40SM 32/10 A3004 RMK AO1 T03220100
MALTA       |KM75 012335Z AUTO 33018G26KT 40SM 27/13 A2997 RMK AO1 T02720133




USA.gov is the U.S. government's official web portal to all federal, state and local government web resources and services.